createdAt,value
2019-05-19T00:00:36.965Z,11.59
2019-05-19T00:03:23.135Z,11.62
2019-05-19T00:06:09.280Z,11.71
2019-05-19T00:08:55.530Z,11.64
2019-05-19T00:11:41.743Z,11.45
2019-05-19T00:14:27.870Z,11.60
2019-05-19T00:17:14.315Z,11.54
2019-05-19T00:20:00.381Z,11.57
2019-05-19T00:22:46.385Z,11.46
2019-05-19T00:25:33.435Z,11.45
2019-05-19T00:28:19.315Z,11.30
2019-05-19T00:31:05.305Z,11.28
2019-05-19T00:33:51.659Z,11.29
2019-05-19T00:36:37.660Z,11.38
2019-05-19T00:39:23.647Z,11.33
2019-05-19T00:42:09.921Z,11.36
2019-05-19T00:44:56.116Z,11.15
2019-05-19T00:47:42.236Z,11.08
2019-05-19T00:50:28.405Z,11.09
2019-05-19T00:53:14.435Z,11.10
2019-05-19T00:56:01.693Z,11.20
2019-05-19T00:58:48.760Z,10.99
2019-05-19T01:01:34.963Z,10.81
2019-05-19T01:04:21.100Z,10.89
2019-05-19T01:07:07.207Z,10.88
2019-05-19T01:09:53.380Z,10.94
2019-05-19T01:12:39.705Z,10.99
2019-05-19T01:15:25.901Z,11.07
2019-05-19T01:18:11.975Z,11.00
2019-05-19T01:20:58.280Z,10.99
2019-05-19T01:23:44.280Z,10.88
2019-05-19T01:26:30.465Z,10.92
2019-05-19T01:29:16.527Z,10.87
2019-05-19T01:32:02.721Z,10.85
2019-05-19T01:34:48.961Z,10.76
2019-05-19T01:37:35.070Z,10.74
2019-05-19T01:40:21.220Z,10.63
2019-05-19T01:43:07.529Z,10.64
2019-05-19T01:45:53.662Z,10.71
2019-05-19T01:48:39.706Z,10.74
2019-05-19T01:51:25.932Z,10.73
2019-05-19T01:54:12.061Z,10.57
2019-05-19T01:56:58.445Z,10.35
2019-05-19T01:59:44.581Z,10.32
2019-05-19T02:02:30.730Z,10.47
2019-05-19T02:05:16.885Z,10.48
2019-05-19T02:08:03.039Z,10.49
2019-05-19T02:10:49.152Z,10.51
2019-05-19T02:13:35.601Z,10.42
2019-05-19T02:16:21.647Z,10.36
2019-05-19T02:19:07.771Z,10.42
2019-05-19T02:21:54.116Z,10.46
2019-05-19T02:24:40.292Z,10.57
2019-05-19T02:27:26.395Z,10.46
2019-05-19T02:30:12.487Z,10.47
2019-05-19T02:32:58.694Z,10.41
2019-05-19T02:35:44.861Z,10.43
2019-05-19T02:38:30.925Z,10.40
2019-05-19T02:41:17.842Z,10.43
2019-05-19T02:44:04.951Z,10.25
2019-05-19T02:46:51.145Z,10.07
2019-05-19T02:49:37.280Z,10.13
2019-05-19T02:52:24.364Z,10.18
2019-05-19T02:55:10.457Z,10.17
2019-05-19T02:57:57.455Z,10.13
2019-05-19T03:00:43.934Z,10.01
2019-05-19T03:03:30.072Z,10.04
2019-05-19T03:06:16.140Z,10.10
2019-05-19T03:09:04.308Z,10.17
2019-05-19T03:11:50.219Z,10.30
2019-05-19T03:14:36.202Z,10.27
2019-05-19T03:17:22.499Z,10.27
2019-05-19T03:20:08.575Z,10.20
2019-05-19T03:22:54.605Z,10.17
2019-05-19T03:25:44.088Z,10.17
2019-05-19T03:28:28.821Z,10.19
2019-05-19T03:31:25.182Z,10.12
2019-05-19T03:34:11.566Z,10.06
2019-05-19T03:36:58.039Z,10.00
2019-05-19T03:39:44.119Z,10.12
2019-05-19T03:42:30.306Z,10.31
2019-05-19T03:45:16.452Z,10.22
2019-05-19T03:48:02.541Z,10.27
2019-05-19T03:50:48.676Z,10.30
2019-05-19T03:53:34.926Z,10.30
2019-05-19T03:56:20.981Z,10.42
2019-05-19T03:59:07.127Z,10.04
2019-05-19T04:01:53.230Z,10.27
2019-05-19T04:04:39.396Z,10.28
2019-05-19T04:07:25.485Z,10.33
2019-05-19T04:10:12.582Z,10.36
2019-05-19T04:12:58.756Z,10.55
2019-05-19T04:15:44.984Z,10.57
2019-05-19T04:18:30.995Z,10.65
2019-05-19T04:21:16.991Z,10.65
2019-05-19T04:24:03.310Z,10.77
2019-05-19T04:26:49.431Z,11.08
2019-05-19T04:29:39.194Z,11.33
2019-05-19T04:32:23.881Z,11.76
2019-05-19T04:35:09.946Z,11.85
2019-05-19T04:37:56.390Z,11.81
2019-05-19T04:40:42.736Z,11.86
2019-05-19T04:43:28.800Z,11.89
2019-05-19T04:46:14.991Z,11.76
2019-05-19T04:49:01.261Z,11.91
2019-05-19T04:51:47.245Z,12.55
2019-05-19T04:54:33.380Z,13.30
2019-05-19T04:57:19.483Z,14.40
2019-05-19T05:00:05.855Z,14.83
2019-05-19T05:02:51.997Z,15.16
2019-05-19T05:05:37.976Z,15.09
2019-05-19T05:08:29.988Z,15.25
2019-05-19T05:11:11.880Z,14.78
2019-05-19T05:13:57.982Z,15.03
2019-05-19T05:16:44.177Z,15.02
2019-05-19T05:19:30.418Z,15.13
2019-05-19T05:22:22.135Z,14.92
2019-05-19T05:25:04.715Z,15.04
2019-05-19T05:27:50.851Z,14.85
2019-05-19T05:30:36.950Z,15.20
2019-05-19T05:33:23.107Z,15.65
2019-05-19T05:36:09.465Z,15.93
2019-05-19T05:38:55.517Z,16.32
2019-05-19T05:41:41.598Z,16.54
2019-05-19T05:44:27.841Z,17.09
2019-05-19T05:47:14.015Z,17.37
2019-05-19T05:50:00.264Z,17.12
2019-05-19T05:52:46.358Z,17.19
2019-05-19T05:55:32.555Z,17.63
2019-05-19T05:58:18.973Z,17.73
2019-05-19T06:01:05.021Z,17.97
2019-05-19T06:03:51.218Z,18.15
2019-05-19T06:06:37.351Z,18.51
2019-05-19T06:09:23.425Z,18.68
2019-05-19T06:12:09.555Z,19.03
2019-05-19T06:14:55.819Z,18.59
2019-05-19T06:17:41.928Z,18.92
2019-05-19T06:20:28.145Z,19.27
2019-05-19T06:23:14.240Z,19.58
2019-05-19T06:26:00.431Z,19.86
2019-05-19T06:28:46.696Z,18.81
2019-05-19T06:31:32.785Z,18.72
2019-05-19T06:34:18.911Z,17.91
2019-05-19T06:37:05.221Z,17.62
2019-05-19T06:39:51.370Z,18.00
2019-05-19T06:42:37.540Z,18.41
2019-05-19T06:45:23.960Z,18.27
2019-05-19T06:48:10.256Z,19.25
2019-05-19T06:50:56.446Z,19.87
2019-05-19T06:53:42.522Z,20.63
2019-05-19T06:56:28.534Z,21.43
2019-05-19T06:59:15.046Z,22.28
2019-05-19T07:02:01.036Z,22.68
2019-05-19T07:04:47.215Z,23.35
2019-05-19T07:07:33.541Z,24.17
2019-05-19T07:10:19.650Z,23.68
2019-05-19T07:13:05.659Z,24.04
2019-05-19T07:15:51.946Z,23.34
2019-05-19T07:18:37.990Z,23.49
2019-05-19T07:21:24.116Z,23.75
2019-05-19T07:24:11.589Z,24.38
2019-05-19T07:26:57.789Z,24.05
2019-05-19T07:29:44.011Z,25.49
2019-05-19T07:32:30.006Z,25.33
2019-05-19T07:35:16.337Z,25.22
2019-05-19T07:38:02.640Z,26.22
2019-05-19T07:40:48.581Z,23.94
2019-05-19T07:43:34.569Z,24.04
2019-05-19T07:46:20.915Z,24.22
2019-05-19T07:49:07.085Z,24.13
2019-05-19T07:51:53.365Z,23.38
2019-05-19T07:54:39.646Z,23.08
2019-05-19T07:57:25.603Z,23.43
2019-05-19T08:00:11.815Z,24.07
2019-05-19T08:02:57.823Z,23.97
2019-05-19T08:05:43.931Z,23.79
2019-05-19T08:08:30.232Z,23.53
2019-05-19T08:11:16.370Z,24.40
2019-05-19T08:14:02.476Z,23.33
2019-05-19T08:16:48.791Z,23.63
2019-05-19T08:19:34.840Z,24.67
2019-05-19T08:22:21.037Z,24.52
2019-05-19T08:25:07.179Z,25.35
2019-05-19T08:27:53.152Z,24.84
2019-05-19T08:30:39.634Z,25.84
2019-05-19T08:33:25.998Z,25.64
2019-05-19T08:36:12.046Z,24.90
2019-05-19T08:38:58.335Z,23.96
2019-05-19T08:41:44.361Z,24.85
2019-05-19T08:44:30.580Z,27.16
2019-05-19T08:47:18.677Z,23.94
2019-05-19T08:50:05.732Z,25.01
2019-05-19T08:52:51.692Z,25.41
2019-05-19T08:55:37.945Z,25.10
2019-05-19T08:58:23.951Z,25.87
2019-05-19T09:01:10.141Z,25.51
2019-05-19T09:03:56.451Z,26.06
2019-05-19T09:06:42.415Z,25.58
2019-05-19T09:09:28.492Z,26.38
2019-05-19T09:12:14.675Z,25.89
2019-05-19T09:15:00.789Z,26.02
2019-05-19T09:17:47.011Z,26.00
2019-05-19T09:20:33.036Z,25.01
2019-05-19T09:23:19.231Z,24.30
2019-05-19T09:26:05.606Z,25.33
2019-05-19T09:28:51.780Z,24.64
2019-05-19T09:31:41.230Z,25.75
2019-05-19T09:34:26.431Z,25.87
2019-05-19T09:37:12.501Z,25.73
2019-05-19T09:39:58.648Z,24.62
2019-05-19T09:42:45.036Z,25.97
2019-05-19T09:45:31.241Z,25.58
2019-05-19T09:48:17.430Z,24.11
2019-05-19T09:51:03.885Z,24.18
2019-05-19T09:53:49.800Z,24.30
2019-05-19T09:56:35.948Z,24.90
2019-05-19T09:59:21.982Z,24.58
2019-05-19T10:02:08.150Z,25.23
2019-05-19T10:04:54.326Z,25.42
2019-05-19T10:07:40.330Z,25.15
2019-05-19T10:10:35.705Z,25.44
2019-05-19T10:13:21.856Z,26.45
2019-05-19T10:16:08.136Z,26.67
2019-05-19T10:18:54.290Z,25.79
2019-05-19T10:21:40.440Z,26.49
2019-05-19T10:24:26.646Z,25.20
2019-05-19T10:27:12.764Z,24.94
2019-05-19T10:29:59.003Z,25.15
2019-05-19T10:32:45.320Z,25.13
2019-05-19T10:35:31.411Z,24.98
2019-05-19T10:38:17.985Z,25.89
2019-05-19T10:41:04.425Z,25.82
2019-05-19T10:44:00.800Z,25.06
2019-05-19T10:46:47.110Z,24.80
2019-05-19T10:49:33.279Z,24.88
2019-05-19T10:52:19.635Z,25.61
2019-05-19T10:55:06.041Z,26.85
2019-05-19T10:57:52.206Z,26.49
2019-05-19T11:00:38.485Z,26.47
2019-05-19T11:03:24.933Z,25.81
2019-05-19T11:06:10.991Z,25.32
2019-05-19T11:08:57.275Z,25.45
2019-05-19T11:11:43.369Z,25.81
2019-05-19T11:14:29.451Z,25.67
2019-05-19T11:17:15.765Z,25.31
2019-05-19T11:20:02.098Z,24.83
2019-05-19T11:22:49.921Z,24.92
2019-05-19T11:25:49.287Z,25.42
2019-05-19T11:28:24.349Z,25.78
2019-05-19T11:31:10.424Z,25.86
2019-05-19T11:33:57.575Z,24.30
2019-05-19T11:36:43.475Z,24.30
2019-05-19T11:39:29.621Z,24.73
2019-05-19T11:42:15.906Z,24.69
2019-05-19T11:45:02.007Z,24.54
2019-05-19T11:47:48.411Z,24.98
2019-05-19T11:50:34.577Z,24.98
2019-05-19T11:53:20.770Z,25.30
2019-05-19T11:56:11.002Z,24.78
2019-05-19T11:58:55.066Z,25.22
2019-05-19T12:01:41.026Z,25.12
2019-05-19T12:04:27.216Z,24.92
2019-05-19T12:07:13.291Z,24.47
2019-05-19T12:09:59.470Z,24.37
2019-05-19T12:12:45.708Z,24.29
2019-05-19T12:15:31.822Z,24.46
2019-05-19T12:18:17.923Z,24.82
2019-05-19T12:21:04.157Z,24.56
2019-05-19T12:23:50.402Z,25.10
2019-05-19T12:26:36.551Z,24.83
2019-05-19T12:29:22.766Z,24.87
2019-05-19T12:32:08.871Z,24.88
2019-05-19T12:34:55.161Z,25.18
2019-05-19T12:37:44.246Z,24.60
2019-05-19T12:40:30.459Z,24.64
2019-05-19T12:43:16.635Z,25.08
2019-05-19T12:46:02.841Z,24.81
2019-05-19T12:48:49.076Z,24.18
2019-05-19T12:51:35.280Z,24.87
2019-05-19T12:54:21.391Z,25.08
2019-05-19T12:57:07.497Z,24.67
2019-05-19T12:59:53.736Z,25.02
2019-05-19T13:02:39.792Z,25.34
2019-05-19T13:05:25.928Z,25.58
2019-05-19T13:08:12.333Z,25.07
2019-05-19T13:10:58.280Z,24.73
2019-05-19T13:13:44.395Z,24.93
2019-05-19T13:16:30.681Z,25.11
2019-05-19T13:19:16.877Z,25.26
2019-05-19T13:22:03.102Z,25.34
2019-05-19T13:24:49.126Z,25.37
2019-05-19T13:27:35.187Z,25.54
2019-05-19T13:30:21.481Z,25.15
2019-05-19T13:33:07.533Z,24.28
2019-05-19T13:35:53.620Z,23.88
2019-05-19T13:38:40.051Z,23.64
2019-05-19T13:41:25.960Z,23.86
2019-05-19T13:44:12.276Z,24.12
2019-05-19T13:46:59.905Z,24.15
2019-05-19T13:49:46.055Z,24.16
2019-05-19T13:52:32.287Z,24.31
2019-05-19T13:55:18.556Z,24.61
2019-05-19T13:58:04.625Z,24.49
2019-05-19T14:00:50.685Z,24.32
2019-05-19T14:03:36.917Z,24.19
2019-05-19T14:06:23.021Z,23.89
2019-05-19T14:09:09.246Z,24.16
2019-05-19T14:11:55.285Z,23.96
2019-05-19T14:14:41.583Z,24.10
2019-05-19T14:17:28.221Z,23.96
2019-05-19T14:20:15.547Z,23.81
2019-05-19T14:23:01.695Z,23.86
2019-05-19T14:25:48.031Z,23.92
2019-05-19T14:28:34.231Z,24.10
2019-05-19T14:31:21.719Z,23.74
2019-05-19T14:34:08.246Z,23.95
2019-05-19T14:36:54.396Z,23.83
2019-05-19T14:39:40.673Z,23.72
2019-05-19T14:42:44.921Z,23.76
2019-05-19T14:45:31.659Z,23.92
2019-05-19T14:48:17.915Z,23.97
2019-05-19T14:51:04.190Z,24.06
2019-05-19T14:53:50.311Z,24.14
2019-05-19T14:56:36.432Z,24.11
2019-05-19T14:59:22.851Z,24.21
2019-05-19T15:02:09.060Z,24.27
2019-05-19T15:04:55.488Z,24.37
2019-05-19T15:07:41.505Z,24.37
2019-05-19T15:10:27.750Z,24.32
2019-05-19T15:13:13.807Z,24.34
2019-05-19T15:15:59.918Z,24.59
2019-05-19T15:18:45.982Z,24.50
2019-05-19T15:21:33.340Z,24.54
2019-05-19T15:24:19.524Z,24.63
2019-05-19T15:27:05.651Z,24.54
2019-05-19T15:29:53.274Z,24.83
2019-05-19T15:32:39.530Z,24.57
2019-05-19T15:35:25.670Z,24.57
2019-05-19T15:38:11.859Z,24.86
2019-05-19T15:40:58.103Z,25.37
2019-05-19T15:43:44.264Z,25.37
2019-05-19T15:46:30.535Z,25.07
2019-05-19T15:49:16.510Z,25.12
2019-05-19T15:52:05.256Z,24.87
2019-05-19T15:54:51.067Z,24.12
2019-05-19T15:57:37.176Z,24.12
2019-05-19T16:00:23.346Z,23.56
2019-05-19T16:03:09.429Z,23.34
2019-05-19T16:05:55.660Z,23.01
2019-05-19T16:08:41.772Z,22.85
2019-05-19T16:11:27.965Z,22.66
2019-05-19T16:14:14.020Z,22.37
2019-05-19T16:17:00.244Z,22.21
2019-05-19T16:19:46.384Z,22.04
2019-05-19T16:22:32.380Z,22.04
2019-05-19T16:25:18.655Z,22.14
2019-05-19T16:28:04.728Z,22.34
2019-05-19T16:30:50.963Z,22.48
2019-05-19T16:33:37.179Z,22.39
2019-05-19T16:36:23.229Z,22.47
2019-05-19T16:39:09.364Z,22.60
2019-05-19T16:41:55.375Z,22.70
2019-05-19T16:44:41.600Z,22.67
2019-05-19T16:47:27.804Z,22.66
2019-05-19T16:50:14.014Z,22.70
2019-05-19T16:53:00.030Z,22.61
2019-05-19T16:55:46.379Z,22.58
2019-05-19T16:58:44.366Z,22.60
2019-05-19T17:01:20.416Z,22.71
2019-05-19T17:04:06.650Z,22.65
2019-05-19T17:06:52.748Z,22.71
2019-05-19T17:09:38.965Z,22.78
2019-05-19T17:12:25.144Z,22.71
2019-05-19T17:15:11.194Z,22.93
2019-05-19T17:17:57.364Z,22.90
2019-05-19T17:20:43.475Z,22.86
2019-05-19T17:23:29.720Z,22.87
2019-05-19T17:26:16.299Z,23.01
2019-05-19T17:29:02.315Z,23.11
2019-05-19T17:31:48.538Z,23.05
2019-05-19T17:34:34.780Z,23.10
2019-05-19T17:37:20.939Z,23.23
2019-05-19T17:40:07.661Z,23.28
2019-05-19T17:42:53.985Z,23.12
2019-05-19T17:45:40.229Z,23.02
2019-05-19T17:48:27.093Z,23.12
2019-05-19T17:51:13.710Z,23.00
2019-05-19T17:53:59.854Z,22.78
2019-05-19T17:56:47.144Z,22.35
2019-05-19T17:59:33.844Z,22.53
2019-05-19T18:02:20.387Z,22.37
2019-05-19T18:05:06.964Z,22.34
2019-05-19T18:07:53.180Z,22.25
2019-05-19T18:10:39.407Z,22.16
2019-05-19T18:13:25.685Z,22.15
2019-05-19T18:16:12.119Z,22.07
2019-05-19T18:18:58.153Z,21.86
2019-05-19T18:21:44.404Z,21.86
2019-05-19T18:24:30.225Z,21.80
2019-05-19T18:27:16.414Z,21.73
2019-05-19T18:30:02.844Z,21.73
2019-05-19T18:32:48.966Z,21.59
2019-05-19T18:35:34.926Z,21.60
2019-05-19T18:38:20.989Z,21.62
2019-05-19T18:41:07.405Z,21.53
2019-05-19T18:43:53.820Z,21.31
2019-05-19T18:46:40.820Z,21.09
2019-05-19T18:49:26.869Z,21.09
2019-05-19T18:52:13.065Z,20.99
2019-05-19T18:54:59.360Z,20.81
2019-05-19T18:57:45.790Z,20.75
2019-05-19T19:00:34.317Z,20.74
2019-05-19T19:03:20.799Z,20.65
2019-05-19T19:06:06.890Z,20.55
2019-05-19T19:08:53.116Z,20.52
2019-05-19T19:11:39.492Z,20.53
2019-05-19T19:14:27.646Z,20.47
2019-05-19T19:17:14.057Z,20.40
2019-05-19T19:20:00.562Z,20.36
2019-05-19T19:22:47.007Z,20.34
2019-05-19T19:25:33.423Z,20.25
2019-05-19T19:28:19.985Z,20.19
2019-05-19T19:31:05.975Z,20.17
2019-05-19T19:33:52.306Z,20.07
2019-05-19T19:36:38.935Z,20.03
2019-05-19T19:39:25.543Z,20.02
2019-05-19T19:42:11.705Z,20.00
2019-05-19T19:44:58.445Z,19.92
2019-05-19T19:47:45.055Z,19.80
2019-05-19T19:50:31.202Z,19.70
2019-05-19T19:53:17.656Z,19.69
2019-05-19T19:56:03.649Z,19.69
2019-05-19T19:58:50.250Z,19.60
2019-05-19T20:01:36.797Z,19.57
2019-05-19T20:04:23.330Z,19.47
2019-05-19T20:07:09.785Z,19.41
2019-05-19T20:09:56.231Z,19.46
2019-05-19T20:12:42.480Z,19.35
2019-05-19T20:15:28.740Z,19.25
2019-05-19T20:18:14.976Z,19.21
2019-05-19T20:21:01.110Z,19.16
2019-05-19T20:23:47.185Z,19.08
2019-05-19T20:26:33.269Z,19.04
2019-05-19T20:29:19.489Z,18.97
2019-05-19T20:32:05.627Z,18.95
2019-05-19T20:34:51.787Z,18.85
2019-05-19T20:37:38.197Z,18.84
2019-05-19T20:40:24.632Z,18.76
2019-05-19T20:43:10.746Z,18.76
2019-05-19T20:45:57.484Z,18.70
2019-05-19T20:48:43.947Z,18.64
2019-05-19T20:51:32.873Z,18.51
2019-05-19T20:54:19.064Z,18.39
2019-05-19T20:57:05.079Z,18.30
2019-05-19T20:59:51.266Z,18.29
2019-05-19T21:02:37.666Z,18.19
2019-05-19T21:05:23.785Z,18.16
2019-05-19T21:08:09.939Z,18.10
2019-05-19T21:10:56.064Z,18.00
2019-05-19T21:13:42.204Z,17.96
2019-05-19T21:16:28.423Z,17.85
2019-05-19T21:19:14.565Z,17.86
2019-05-19T21:22:00.639Z,17.83
2019-05-19T21:24:46.845Z,17.82
2019-05-19T21:27:32.956Z,17.71
2019-05-19T21:30:19.020Z,17.68
2019-05-19T21:33:05.375Z,17.51
2019-05-19T21:35:51.415Z,17.48
2019-05-19T21:38:37.490Z,17.46
2019-05-19T21:41:23.690Z,17.31
2019-05-19T21:44:09.800Z,17.23
2019-05-19T21:46:55.930Z,17.21
2019-05-19T21:49:42.082Z,17.16
2019-05-19T21:52:28.249Z,17.03
2019-05-19T21:55:14.656Z,17.04
2019-05-19T21:58:00.460Z,17.09
2019-05-19T22:00:47.021Z,17.17
2019-05-19T22:03:33.531Z,17.17
2019-05-19T22:06:21.454Z,17.17
2019-05-19T22:09:07.421Z,17.07
2019-05-19T22:11:53.860Z,16.97
2019-05-19T22:14:39.890Z,16.97
2019-05-19T22:17:25.977Z,16.92
2019-05-19T22:20:12.405Z,16.89
2019-05-19T22:22:58.365Z,16.83
2019-05-19T22:25:44.960Z,16.84
2019-05-19T22:28:31.364Z,16.87
2019-05-19T22:31:17.416Z,16.84
2019-05-19T22:34:03.629Z,16.80
2019-05-19T22:36:49.579Z,16.76
2019-05-19T22:39:35.746Z,16.68
2019-05-19T22:42:21.995Z,16.62
2019-05-19T22:45:08.195Z,16.59
2019-05-19T22:47:54.264Z,16.62
2019-05-19T22:50:40.608Z,16.58
2019-05-19T22:53:26.810Z,16.60
2019-05-19T22:56:13.158Z,16.60
2019-05-19T22:58:59.361Z,16.54
2019-05-19T23:01:51.771Z,16.48
2019-05-19T23:04:33.635Z,16.49
2019-05-19T23:07:19.860Z,16.48
2019-05-19T23:10:06.549Z,16.34
2019-05-19T23:12:52.842Z,16.18
2019-05-19T23:15:38.986Z,16.16
2019-05-19T23:18:25.034Z,16.10
2019-05-19T23:21:11.211Z,15.95
2019-05-19T23:23:57.345Z,15.88
2019-05-19T23:26:43.540Z,15.95
2019-05-19T23:29:29.850Z,16.03
2019-05-19T23:32:15.879Z,15.88
2019-05-19T23:35:02.072Z,15.73
2019-05-19T23:37:48.190Z,15.78
2019-05-19T23:40:34.273Z,15.81
2019-05-19T23:43:20.444Z,15.69
2019-05-19T23:46:06.631Z,15.62
2019-05-19T23:48:52.725Z,15.59
2019-05-19T23:51:39.042Z,15.49
2019-05-19T23:54:25.294Z,15.44
2019-05-19T23:57:11.600Z,15.45
2019-05-19T23:59:58.040Z,15.43
